Time;durP1;ratioP1;P1;durP2;ratioP2;P2;SDS_P1;SDS_P2;PMS_P1;PMS_P2;Temp;Humidity;BMP_temperature;BMP_pressure;BME280_temperature;BME280_humidity;BME280_pressure;Samples;Min_cycle;Max_cycle;Signal;HPM_P1;HPM_P2
2021/05/05 00:00:38;;;;;;;3.20;1.17;;;;;;;9.42;92.71;99167.99;639828;223;24806;-77
2021/05/05 00:03:06;;;;;;;1.73;0.90;;;;;;;9.79;90.69;99161.45;631523;225;32592;-77
2021/05/05 00:05:34;;;;;;;2.67;1.10;;;;;;;9.71;91.72;99166.66;647708;221;24708;-77
2021/05/05 00:08:02;;;;;;;6.20;0.90;;;;;;;9.49;91.88;99172.87;636303;224;24796;-77
2021/05/05 00:10:30;;;;;;;1.90;0.80;;;;;;;9.90;90.82;99177.18;643198;221;32422;-77
2021/05/05 00:12:57;;;;;;;3.33;0.90;;;;;;;9.60;90.65;99181.30;647032;221;24779;-77
2021/05/05 00:15:26;;;;;;;0.70;0.70;;;;;;;9.39;92.23;99183.89;634701;225;25930;-77
2021/05/05 00:17:53;;;;;;;3.07;0.93;;;;;;;9.62;92.18;99176.75;634662;225;24841;-77
2021/05/05 00:20:21;;;;;;;2.83;0.97;;;;;;;9.30;93.07;99171.91;637799;225;24845;-76
2021/05/05 00:22:49;;;;;;;2.30;0.80;;;;;;;9.57;91.93;99169.47;636924;225;24773;-77
2021/05/05 00:25:17;;;;;;;1.17;0.80;;;;;;;9.28;92.59;99163.45;639331;223;24795;-76
2021/05/05 00:27:45;;;;;;;1.10;0.90;;;;;;;9.18;93.73;99156.34;636552;225;24615;-76
2021/05/05 00:30:13;;;;;;;0.93;0.83;;;;;;;9.12;94.00;99162.97;649199;221;24816;-77
2021/05/05 00:32:41;;;;;;;1.70;0.90;;;;;;;9.49;92.73;99153.89;642179;221;32567;-77
2021/05/05 00:35:10;;;;;;;1.60;0.80;;;;;;;9.11;94.09;99141.09;644359;221;23717;-76
2021/05/05 00:37:38;;;;;;;2.10;0.70;;;;;;;9.24;94.17;99144.01;637707;225;24792;-77
2021/05/05 00:40:07;;;;;;;2.40;0.93;;;;;;;9.01;95.39;99150.35;647043;220;24907;-77
2021/05/05 00:42:35;;;;;;;2.43;0.90;;;;;;;8.90;95.87;99142.88;651051;220;24773;-77
2021/05/05 00:45:03;;;;;;;1.63;0.90;;;;;;;8.92;95.87;99131.38;649246;220;27876;-77
2021/05/05 00:47:31;;;;;;;0.80;0.80;;;;;;;9.07;95.50;99141.10;637494;221;26943;-77
2021/05/05 00:49:59;;;;;;;5.00;1.23;;;;;;;9.15;95.74;99138.52;645020;221;24743;-77
2021/05/05 00:52:26;;;;;;;2.30;0.90;;;;;;;9.19;95.52;99128.94;642223;221;24827;-77
2021/05/05 00:54:54;;;;;;;3.03;1.10;;;;;;;9.10;96.35;99132.50;647470;221;24783;-78
2021/05/05 00:57:22;;;;;;;2.00;1.00;;;;;;;9.01;95.96;99127.47;634464;225;26964;-77
2021/05/05 00:59:50;;;;;;;3.33;0.97;;;;;;;9.20;96.02;99122.78;635535;225;24819;-77
2021/05/05 01:02:18;;;;;;;2.90;0.90;;;;;;;9.04;96.30;99115.50;633590;225;25083;-77
2021/05/05 01:04:46;;;;;;;1.77;0.80;;;;;;;9.37;95.09;99105.41;643764;219;43254;-77
2021/05/05 01:07:14;;;;;;;1.83;0.80;;;;;;;9.09;96.02;99092.47;637952;223;26973;-77
2021/05/05 01:09:42;;;;;;;1.13;0.90;;;;;;;9.03;95.96;99095.72;638736;225;29021;-77
2021/05/05 01:12:10;;;;;;;1.50;0.80;;;;;;;8.99;96.40;99099.59;639025;224;27982;-77
2021/05/05 01:14:39;;;;;;;3.63;0.70;;;;;;;9.13;95.68;99108.83;646402;221;26868;-78
2021/05/05 01:17:07;;;;;;;2.80;1.10;;;;;;;8.96;96.91;99116.78;635464;225;24843;-77
2021/05/05 01:19:35;;;;;;;1.77;1.10;;;;;;;8.91;97.02;99123.76;635978;225;27019;-77
2021/05/05 01:22:03;;;;;;;6.30;1.00;;;;;;;8.79;98.27;99128.92;642666;223;24826;-77
2021/05/05 01:24:32;;;;;;;2.40;1.00;;;;;;;8.72;98.69;99130.52;637960;225;24787;-77
2021/05/05 01:26:59;;;;;;;0.80;0.80;;;;;;;8.69;98.34;99126.96;637954;225;24784;-77
2021/05/05 01:29:27;;;;;;;2.67;1.10;;;;;;;8.79;97.93;99128.44;644170;220;24776;-79
2021/05/05 01:31:55;;;;;;;1.80;1.00;;;;;;;8.74;98.55;99137.68;635042;225;25900;-77
2021/05/05 01:34:23;;;;;;;1.60;0.87;;;;;;;8.79;98.07;99140.11;638326;221;24801;-77
2021/05/05 01:36:56;;;;;;;3.00;0.90;;;;;;;8.92;98.25;99140.45;636905;225;24780;-76
2021/05/05 01:39:23;;;;;;;2.50;1.07;;;;;;;8.84;99.14;99135.73;638100;225;24929;-77
2021/05/05 01:41:51;;;;;;;9.43;1.47;;;;;;;8.91;98.53;99142.72;647731;220;24786;-77
2021/05/05 01:44:25;;;;;;;1.20;0.90;;;;;;;8.78;98.34;99155.83;638159;225;24986;-78
2021/05/05 01:46:53;;;;;;;3.53;1.40;;;;;;;8.51;100.00;99153.02;635443;225;24865;-77
2021/05/05 01:49:21;;;;;;;4.17;1.20;;;;;;;8.52;100.00;99155.44;648580;220;24976;-77
2021/05/05 01:51:50;;;;;;;3.37;1.07;;;;;;;8.76;100.00;99151.29;630071;221;32560;-77
2021/05/05 01:54:17;;;;;;;2.27;0.97;;;;;;;8.66;100.00;99144.13;636106;225;23682;-77
2021/05/05 01:56:45;;;;;;;3.57;1.07;;;;;;;8.63;100.00;99134.41;647443;221;24766;-78
2021/05/05 01:59:13;;;;;;;1.70;1.10;;;;;;;8.74;100.00;99116.45;637930;224;24804;-77
2021/05/05 02:01:41;;;;;;;3.13;1.10;;;;;;;8.46;100.00;99098.27;646920;221;24741;-77
2021/05/05 02:04:09;;;;;;;6.90;1.30;;;;;;;8.68;100.00;99113.19;637540;225;24794;-77
2021/05/05 02:06:37;;;;;;;2.00;1.10;;;;;;;8.70;100.00;99084.52;635918;225;24787;-77
2021/05/05 02:09:08;;;;;;;2.40;0.90;;;;;;;8.70;100.00;99092.30;639167;222;24793;-77
2021/05/05 02:11:34;;;;;;;4.63;1.40;;;;;;;8.60;100.00;99085.50;646958;221;24764;-77
2021/05/05 02:14:03;;;;;;;2.90;1.00;;;;;;;8.75;100.00;99087.45;637039;225;24864;-76
2021/05/05 02:16:30;;;;;;;8.30;1.20;;;;;;;8.52;100.00;99093.73;650062;219;26999;-77
2021/05/05 02:18:58;;;;;;;2.70;1.20;;;;;;;8.37;100.00;99097.44;647766;220;24780;-77
2021/05/05 02:21:27;;;;;;;4.77;1.33;;;;;;;8.39;100.00;99110.22;639140;224;24856;-77
2021/05/05 02:23:55;;;;;;;3.77;1.33;;;;;;;8.44;100.00;99102.77;650706;220;24752;-77
2021/05/05 02:26:23;;;;;;;4.23;1.43;;;;;;;8.49;100.00;99105.72;648298;221;24800;-77
2021/05/05 02:28:51;;;;;;;2.37;0.90;;;;;;;8.43;100.00;99118.00;634279;224;24853;-77
2021/05/05 02:31:18;;;;;;;3.07;1.30;;;;;;;8.42;100.00;99128.03;649653;220;25085;-77
2021/05/05 02:33:46;;;;;;;3.50;1.40;;;;;;;8.47;100.00;99129.20;650144;220;24727;-77
2021/05/05 02:36:14;;;;;;;2.90;0.80;;;;;;;8.60;100.00;99133.93;640759;223;24800;-77
2021/05/05 02:38:42;;;;;;;1.20;1.00;;;;;;;8.57;100.00;99136.81;637203;222;24787;-77
2021/05/05 02:41:10;;;;;;;2.20;1.10;;;;;;;8.49;100.00;99132.44;644779;221;24812;-77
2021/05/05 02:43:38;;;;;;;2.70;1.20;;;;;;;8.31;100.00;99123.95;647456;221;24714;-77
2021/05/05 02:46:06;;;;;;;3.73;1.17;;;;;;;8.42;100.00;99135.81;647915;221;27916;-77
2021/05/05 02:48:34;;;;;;;3.03;1.20;;;;;;;8.25;100.00;99133.63;632897;225;24872;-77
2021/05/05 02:51:02;;;;;;;3.10;1.10;;;;;;;8.30;100.00;99137.84;637537;225;25248;-77
2021/05/05 02:53:30;;;;;;;2.70;1.20;;;;;;;8.72;100.00;99131.81;644089;221;32464;-77
2021/05/05 02:55:57;;;;;;;3.07;1.30;;;;;;;8.58;100.00;99131.95;649249;221;24741;-77
2021/05/05 02:58:25;;;;;;;2.77;1.37;;;;;;;8.42;100.00;99135.81;635733;225;24822;-77
2021/05/05 03:00:53;;;;;;;5.00;1.43;;;;;;;8.60;100.00;99135.23;649606;220;24738;-77
2021/05/05 03:03:21;;;;;;;7.13;1.80;;;;;;;8.46;100.00;99142.32;639765;223;24801;-77
2021/05/05 03:05:49;;;;;;;2.20;1.70;;;;;;;8.58;100.00;99130.66;637099;225;24795;-77
2021/05/05 03:08:18;;;;;;;4.50;1.57;;;;;;;8.62;100.00;99123.73;637416;225;24790;-77
2021/05/05 03:10:45;;;;;;;2.50;1.30;;;;;;;8.48;100.00;99128.23;636540;225;24861;-77
2021/05/05 03:13:13;;;;;;;3.80;1.30;;;;;;;8.46;100.00;99137.14;649268;221;24777;-77
2021/05/05 03:15:41;;;;;;;4.07;1.80;;;;;;;8.51;100.00;99133.09;647904;221;24739;-77
2021/05/05 03:18:09;;;;;;;4.33;1.42;;;;;;;8.95;100.00;99125.05;631494;225;32569;-77
2021/05/05 03:20:37;;;;;;;3.50;1.67;;;;;;;8.56;100.00;99131.31;635889;223;23673;-77
2021/05/05 03:23:05;;;;;;;2.63;1.57;;;;;;;8.51;100.00;99131.80;636916;225;24802;-77
2021/05/05 03:25:33;;;;;;;2.77;1.27;;;;;;;8.38;100.00;99137.91;634441;225;24822;-77
2021/05/05 03:28:01;;;;;;;4.50;1.90;;;;;;;8.28;100.00;99139.30;638000;223;24808;-77
2021/05/05 03:30:30;;;;;;;4.47;1.83;;;;;;;8.14;100.00;99148.96;639612;224;26927;-77
2021/05/05 03:32:57;;;;;;;3.60;1.40;;;;;;;8.11;100.00;99147.98;634546;225;24859;-77
2021/05/05 03:35:25;;;;;;;3.00;1.90;;;;;;;8.12;100.00;99142.31;650957;220;24767;-77
2021/05/05 03:37:54;;;;;;;4.73;1.90;;;;;;;8.13;100.00;99151.22;638263;225;24805;-77
2021/05/05 03:40:21;;;;;;;4.73;1.57;;;;;;;8.21;100.00;99153.86;650072;220;24736;-77
2021/05/05 03:42:49;;;;;;;6.07;1.30;;;;;;;8.22;100.00;99148.20;638829;224;24878;-77
2021/05/05 03:45:17;;;;;;;2.40;1.40;;;;;;;7.95;100.00;99151.80;647673;220;24746;-77
2021/05/05 03:47:45;;;;;;;2.83;1.50;;;;;;;7.94;100.00;99157.45;638354;225;24778;-77
2021/05/05 03:50:13;;;;;;;1.80;1.50;;;;;;;7.93;100.00;99151.14;637574;223;25267;-76
2021/05/05 03:52:43;;;;;;;3.87;1.90;;;;;;;8.02;100.00;99152.78;636859;225;29038;-77
2021/05/05 03:55:12;;;;;;;3.27;1.50;;;;;;;8.08;100.00;99152.67;643372;221;24729;-77
2021/05/05 03:57:40;;;;;;;4.93;1.27;;;;;;;7.95;100.00;99159.08;637581;225;24853;-77
2021/05/05 04:00:10;;;;;;;2.13;1.40;;;;;;;8.15;100.00;99163.53;649613;221;24737;-77
2021/05/05 04:02:38;;;;;;;5.43;1.60;;;;;;;8.20;100.00;99159.20;639080;223;24859;-77
2021/05/05 04:05:07;;;;;;;1.73;1.30;;;;;;;8.08;100.00;99165.13;649196;221;24742;-77
2021/05/05 04:07:35;;;;;;;6.83;1.60;;;;;;;8.27;100.00;99159.70;635362;221;24801;-77
2021/05/05 04:10:03;;;;;;;5.57;1.40;;;;;;;8.15;100.00;99171.30;637274;225;26100;-77
2021/05/05 04:12:31;;;;;;;2.43;1.47;;;;;;;8.11;100.00;99172.58;649473;220;24774;-77
2021/05/05 04:15:06;;;;;;;5.63;1.43;;;;;;;7.95;100.00;99178.98;637860;225;24839;-78
2021/05/05 04:17:40;;;;;;;7.00;1.50;;;;;;;8.23;100.00;99184.78;633406;223;32758;-77
2021/05/05 04:20:14;;;;;;;7.47;2.40;;;;;;;8.12;100.00;99186.34;630523;225;23684;-77
2021/05/05 04:22:47;;;;;;;5.73;1.87;;;;;;;8.09;100.00;99186.66;636011;225;26898;-78
2021/05/05 04:25:21;;;;;;;3.07;1.23;;;;;;;7.97;100.00;99183.03;635449;225;24819;-77
2021/05/05 04:27:49;;;;;;;4.80;1.50;;;;;;;7.88;100.00;99190.90;640678;221;34434;-78
2021/05/05 04:30:18;;;;;;;5.73;1.97;;;;;;;7.96;100.00;99192.25;646361;221;24744;-77
2021/05/05 04:32:47;;;;;;;4.47;1.50;;;;;;;7.98;100.00;99196.79;647504;221;24746;-78
2021/05/05 04:35:15;;;;;;;5.17;1.83;;;;;;;7.92;100.00;99202.59;637820;224;26093;-77
2021/05/05 04:37:43;;;;;;;4.20;1.90;;;;;;;7.99;100.00;99213.95;631440;226;32691;-77
2021/05/05 04:40:11;;;;;;;7.37;2.10;;;;;;;7.92;100.00;99221.52;638457;219;23669;-77
2021/05/05 04:42:40;;;;;;;6.80;1.80;;;;;;;7.96;100.00;99223.31;646299;221;24790;-78
2021/05/05 04:45:09;;;;;;;3.00;1.50;;;;;;;7.90;100.00;99221.36;652725;220;25774;-77
2021/05/05 04:47:37;;;;;;;6.93;1.73;;;;;;;7.78;100.00;99236.80;639641;221;24812;-77
2021/05/05 04:50:06;;;;;;;3.90;1.50;;;;;;;7.87;100.00;99243.16;640682;223;26070;-79
2021/05/05 04:52:34;;;;;;;5.03;2.13;;;;;;;7.74;100.00;99243.58;642769;223;24852;-78
2021/05/05 04:55:02;;;;;;;4.60;2.10;;;;;;;7.72;100.00;99251.14;639682;223;24798;-81
2021/05/05 04:57:29;;;;;;;5.33;1.70;;;;;;;7.67;100.00;99256.77;641664;223;29044;-81
2021/05/05 04:59:57;;;;;;;2.17;1.90;;;;;;;7.61;100.00;99260.45;639962;223;24852;-77
2021/05/05 05:02:25;;;;;;;7.10;2.03;;;;;;;7.65;100.00;99261.30;647520;221;24784;-77
2021/05/05 05:04:53;;;;;;;5.30;1.80;;;;;;;7.92;100.00;99263.43;630544;225;43349;-77
2021/05/05 05:07:21;;;;;;;2.50;1.80;;;;;;;7.86;100.00;99263.53;634878;225;24802;-77
2021/05/05 05:09:49;;;;;;;4.20;1.83;;;;;;;8.27;100.00;99265.09;639147;223;27958;-77
2021/05/05 05:12:17;;;;;;;6.60;1.80;;;;;;;8.16;100.00;99262.27;639690;220;24772;-77
2021/05/05 05:14:45;;;;;;;3.27;1.53;;;;;;;8.35;100.00;99273.43;648362;220;24774;-77
2021/05/05 05:17:13;;;;;;;2.50;1.73;;;;;;;8.54;100.00;99274.48;650027;220;24783;-77
2021/05/05 05:19:40;;;;;;;6.17;1.73;;;;;;;8.80;99.26;99278.31;636637;225;25842;-77
2021/05/05 05:22:08;;;;;;;3.13;2.00;;;;;;;9.10;97.96;99275.64;637678;225;26888;-78
2021/05/05 05:24:36;;;;;;;2.40;1.73;;;;;;;9.52;96.63;99272.46;648298;220;24915;-78
2021/05/05 05:27:04;;;;;;;3.73;1.67;;;;;;;9.28;96.14;99272.91;651370;220;24773;-77
2021/05/05 05:29:32;;;;;;;3.80;1.70;;;;;;;9.18;95.13;99282.16;649662;219;25856;-77
2021/05/05 05:32:00;;;;;;;8.17;1.90;;;;;;;9.44;95.23;99280.27;647070;220;24779;-80
2021/05/05 05:34:28;;;;;;;2.83;1.80;;;;;;;9.50;94.47;99283.98;636060;225;24797;-77
2021/05/05 05:36:56;;;;;;;6.13;2.20;;;;;;;9.30;93.59;99289.16;648098;221;24808;-77
2021/05/05 05:39:24;;;;;;;5.73;2.30;;;;;;;9.27;95.42;99294.64;638074;225;31436;-77
2021/05/05 05:41:52;;;;;;;3.33;1.63;;;;;;;9.75;93.81;99300.39;649465;221;26072;-77
2021/05/05 05:44:19;;;;;;;4.70;2.13;;;;;;;9.98;92.40;99297.44;637610;225;24850;-78
2021/05/05 05:46:47;;;;;;;8.17;1.70;;;;;;;9.41;92.72;99290.94;637902;221;24979;-77
2021/05/05 05:49:15;;;;;;;3.80;1.83;;;;;;;9.68;91.99;99305.41;649529;221;24782;-77
2021/05/05 05:51:43;;;;;;;7.67;1.93;;;;;;;10.22;90.20;99294.03;639118;222;26016;-78
2021/05/05 05:54:11;;;;;;;7.17;1.53;;;;;;;9.58;90.24;99293.58;641082;220;25076;-79
2021/05/05 05:56:39;;;;;;;4.30;1.80;;;;;;;9.84;89.54;99299.39;624088;225;32886;-77
2021/05/05 05:59:07;;;;;;;4.17;1.63;;;;;;;9.63;90.29;99299.89;639976;221;24820;-77
2021/05/05 06:01:34;;;;;;;4.37;1.57;;;;;;;9.73;88.29;99295.84;640696;223;24816;-77
2021/05/05 06:04:03;;;;;;;10.17;2.20;;;;;;;9.71;85.51;99292.58;639590;221;29042;-77
2021/05/05 06:06:30;;;;;;;10.13;1.97;;;;;;;9.63;84.63;99293.89;638240;225;24789;-77
2021/05/05 06:08:58;;;;;;;6.60;1.50;;;;;;;9.45;82.42;99290.16;647079;219;24791;-79
2021/05/05 06:11:26;;;;;;;12.57;2.17;;;;;;;9.32;81.35;99290.62;647770;221;24755;-79
2021/05/05 06:13:54;;;;;;;4.80;1.50;;;;;;;8.87;79.71;99285.81;633774;224;24860;-79
2021/05/05 06:16:22;;;;;;;7.70;1.80;;;;;;;8.89;79.03;99281.28;634506;223;24777;-78
2021/05/05 06:18:50;;;;;;;7.47;1.80;;;;;;;9.33;78.94;99292.24;643709;221;32481;-79
2021/05/05 06:21:17;;;;;;;4.33;1.50;;;;;;;8.82;77.76;99286.75;649401;220;23663;-77
2021/05/05 06:23:45;;;;;;;5.07;1.80;;;;;;;8.76;78.74;99301.16;639182;221;24848;-79
2021/05/05 06:26:13;;;;;;;9.30;2.30;;;;;;;9.08;80.17;99304.34;641507;221;24869;-80
2021/05/05 06:28:41;;;;;;;6.20;1.57;;;;;;;8.95;77.94;99300.56;636528;225;24803;-79
2021/05/05 06:31:09;;;;;;;8.27;1.80;;;;;;;9.04;78.68;99308.71;630790;225;24829;-79
2021/05/05 06:33:37;;;;;;;9.05;2.00;;;;;;;8.91;78.96;99298.30;632299;224;32489;-78
2021/05/05 06:36:05;;;;;;;10.67;2.30;;;;;;;9.51;78.79;99312.86;644589;222;23701;-79
2021/05/05 06:38:33;;;;;;;4.10;1.40;;;;;;;9.55;77.73;99306.84;633732;225;24813;-78
2021/05/05 06:41:01;;;;;;;9.10;2.30;;;;;;;9.48;76.98;99304.09;635660;225;24871;-79
2021/05/05 06:43:29;;;;;;;8.90;1.70;;;;;;;9.75;75.14;99305.58;633166;225;24852;-79
2021/05/05 06:45:57;;;;;;;4.00;1.67;;;;;;;9.57;76.56;99298.41;635990;224;25001;-79
2021/05/05 06:48:25;;;;;;;5.60;2.00;;;;;;;9.61;76.92;99301.03;637839;225;24852;-78
2021/05/05 06:50:53;;;;;;;7.53;1.73;;;;;;;9.81;74.98;99307.52;636996;225;24810;-76
2021/05/05 06:53:21;;;;;;;8.23;1.90;;;;;;;9.66;75.59;99306.55;633399;225;25018;-79
2021/05/05 06:55:48;;;;;;;4.67;1.47;;;;;;;9.41;75.42;99306.99;650021;220;24712;-79
2021/05/05 06:58:19;;;;;;;5.30;1.60;;;;;;;9.57;75.23;99312.23;651946;219;25229;-79
2021/05/05 07:00:45;;;;;;;9.93;1.80;;;;;;;9.98;74.13;99311.72;635891;225;24819;-78
2021/05/05 07:03:13;;;;;;;3.20;1.20;;;;;;;9.66;73.03;99297.45;638667;223;27965;-79
2021/05/05 07:05:41;;;;;;;6.43;1.33;;;;;;;9.64;73.01;99301.52;651562;220;24777;-79
2021/05/05 07:08:09;;;;;;;5.60;1.60;;;;;;;9.25;74.87;99308.27;633203;225;24826;-79
2021/05/05 07:10:37;;;;;;;2.93;1.40;;;;;;;9.32;76.29;99319.16;637022;225;24781;-79
2021/05/05 07:13:04;;;;;;;5.20;1.53;;;;;;;9.60;74.56;99313.69;646293;220;24745;-80
2021/05/05 07:15:32;;;;;;;8.93;1.83;;;;;;;9.55;76.55;99325.83;638622;225;26908;-79
2021/05/05 07:18:01;;;;;;;5.37;1.63;;;;;;;9.76;75.86;99320.19;636364;225;24849;-80
2021/05/05 07:20:29;;;;;;;10.57;2.00;;;;;;;9.43;75.23;99322.76;638242;225;24843;-79
2021/05/05 07:22:57;;;;;;;6.20;1.53;;;;;;;9.40;72.40;99304.08;648296;220;24761;-79
2021/05/05 07:25:25;;;;;;;3.60;1.30;;;;;;;9.16;72.02;99312.16;647268;221;24748;-79
2021/05/05 07:27:53;;;;;;;4.90;1.60;;;;;;;9.31;74.09;99328.41;647839;221;24734;-79
2021/05/05 07:30:21;;;;;;;8.63;1.87;;;;;;;9.37;75.80;99325.16;636768;225;26952;-79
2021/05/05 07:32:49;;;;;;;8.18;1.60;;;;;;;9.86;74.19;99335.12;644763;221;43061;-77
2021/05/05 07:35:18;;;;;;;3.50;1.47;;;;;;;10.10;73.43;99329.91;637468;225;23703;-76
2021/05/05 07:44:02;;;;;;;4.43;2.03;;;;;;;9.64;71.45;99318.39;633127;225;23696;-79
2021/05/05 07:46:09;;;;;;;4.10;1.70;;;;;;;9.72;72.70;99312.41;632623;225;24845;-79
2021/05/05 07:48:39;;;;;;;3.73;1.40;;;;;;;9.69;70.18;99319.19;634839;225;24820;-76
2021/05/05 07:51:03;;;;;;;5.33;1.33;;;;;;;10.00;69.11;99316.78;637009;224;24793;-79
2021/05/05 07:53:30;;;;;;;4.17;1.40;;;;;;;9.90;70.14;99313.05;639154;221;24806;-79
2021/05/05 07:55:59;;;;;;;3.93;1.70;;;;;;;9.64;70.16;99316.28;648994;221;24779;-79
2021/05/05 07:58:26;;;;;;;5.77;1.53;;;;;;;9.31;68.94;99312.35;626152;226;24863;-79
2021/05/05 08:00:53;;;;;;;6.70;1.50;;;;;;;9.05;71.67;99316.33;636788;225;24891;-79
2021/05/05 08:03:21;;;;;;;7.10;1.30;;;;;;;9.02;72.20;99332.70;651073;220;24746;-79
2021/05/05 08:05:49;;;;;;;10.27;1.70;;;;;;;9.11;73.77;99329.14;635788;225;24828;-78
2021/05/05 08:08:17;;;;;;;4.83;1.37;;;;;;;9.83;74.18;99336.73;634263;225;24807;-78
2021/05/05 08:10:45;;;;;;;7.90;1.60;;;;;;;9.94;75.46;99344.69;637658;225;24768;-79
2021/05/05 08:13:13;;;;;;;6.90;2.10;;;;;;;10.11;75.41;99347.59;634900;224;24778;-79
2021/05/05 08:15:41;;;;;;;5.07;1.90;;;;;;;10.36;74.72;99344.52;647136;220;24708;-79
2021/05/05 08:18:10;;;;;;;10.80;2.00;;;;;;;10.24;74.68;99345.84;633095;222;25005;-77
2021/05/05 08:20:37;;;;;;;4.10;1.33;;;;;;;10.85;73.33;99337.91;638335;223;25896;-77
2021/05/05 08:23:05;;;;;;;5.13;1.80;;;;;;;11.49;71.98;99346.36;645294;221;24844;-76
2021/05/05 08:25:33;;;;;;;6.43;1.60;;;;;;;10.67;71.12;99332.42;640719;222;24800;-77
2021/05/05 08:28:01;;;;;;;10.70;1.57;;;;;;;10.72;72.21;99337.63;637548;221;24785;-77
2021/05/05 08:30:29;;;;;;;8.47;1.77;;;;;;;11.70;70.99;99343.95;628362;225;24844;-77
2021/05/05 08:32:57;;;;;;;6.23;1.33;;;;;;;11.12;69.89;99336.16;638956;225;24750;-77
2021/05/05 08:35:25;;;;;;;4.70;1.43;;;;;;;10.87;68.39;99310.74;647942;221;24831;-77
2021/05/05 08:37:53;;;;;;;5.13;1.40;;;;;;;11.39;69.42;99306.70;631790;225;32844;-77
2021/05/05 08:40:21;;;;;;;9.93;1.83;;;;;;;11.94;66.92;99309.59;646100;221;25840;-76
2021/05/05 08:42:49;;;;;;;6.20;2.07;;;;;;;11.51;65.42;99302.23;635447;221;24854;-77
2021/05/05 08:45:18;;;;;;;9.50;1.57;;;;;;;11.27;65.37;99273.78;631348;225;28028;-76
2021/05/05 08:47:46;;;;;;;5.13;1.87;;;;;;;11.33;64.21;99276.17;634276;225;24883;-76
2021/05/05 08:50:14;;;;;;;6.83;1.43;;;;;;;11.66;66.19;99282.75;644464;221;27952;-77
2021/05/05 08:52:42;;;;;;;9.50;1.50;;;;;;;11.69;65.48;99281.12;648322;220;24736;-77
2021/05/05 08:55:10;;;;;;;5.10;2.03;;;;;;;11.46;64.77;99277.22;647696;220;25013;-77
2021/05/05 08:57:38;;;;;;;4.58;1.50;;;;;;;11.70;63.28;99275.42;630459;225;32584;-76
2021/05/05 09:00:07;;;;;;;5.03;1.60;;;;;;;11.93;65.15;99280.11;639122;223;29430;-77
2021/05/05 09:02:36;;;;;;;7.63;1.40;;;;;;;12.27;65.28;99278.83;637706;225;25944;-76
2021/05/05 09:05:05;;;;;;;4.00;1.60;;;;;;;12.71;62.95;99274.90;636030;225;24793;-77
2021/05/05 09:07:32;;;;;;;6.43;1.50;;;;;;;12.65;62.45;99271.69;647238;221;23775;-76
2021/05/05 09:10:03;;;;;;;5.17;1.70;;;;;;;12.61;61.82;99250.88;645840;221;24744;-78
2021/05/05 09:12:30;;;;;;;9.93;1.80;;;;;;;13.04;61.14;99259.11;634251;225;24801;-77
2021/05/05 09:14:59;;;;;;;4.37;1.50;;;;;;;12.04;63.26;99261.94;646531;221;24730;-77
2021/05/05 09:17:27;;;;;;;9.30;2.83;;;;;;;11.38;63.56;99273.36;635409;225;24842;-77
2021/05/05 09:20:05;;;;;;;3.50;1.63;;;;;;;11.74;64.98;99285.80;637259;225;24839;-77
2021/05/05 09:22:35;;;;;;;6.77;2.10;;;;;;;11.67;64.54;99295.28;645164;221;24795;-77
2021/05/05 09:25:04;;;;;;;5.97;1.77;;;;;;;10.95;65.60;99311.98;635222;225;24835;-77
2021/05/05 09:27:33;;;;;;;4.30;1.63;;;;;;;10.28;66.56;99338.06;651416;219;24752;-79
2021/05/05 09:30:02;;;;;;;1.70;0.73;;;;;;;8.16;76.49;99411.67;635895;225;24795;-79
2021/05/05 09:32:29;;;;;;;4.63;1.27;;;;;;;6.68;92.08;99565.22;637335;224;25958;-79
2021/05/05 09:34:59;;;;;;;8.33;2.30;;;;;;;5.75;98.12;99593.45;650892;220;24761;-79
2021/05/05 09:37:26;;;;;;;2.77;0.80;;;;;;;5.07;98.49;99556.22;639579;224;24743;-80
2021/05/05 09:39:59;;;;;;;1.03;0.83;;;;;;;5.14;99.77;99545.73;637489;224;24784;-80
2021/05/05 09:42:27;;;;;;;5.08;1.90;;;;;;;5.41;100.00;99540.52;643689;221;32274;-80
2021/05/05 09:44:56;;;;;;;1.63;1.27;;;;;;;5.79;98.95;99535.51;647014;221;23643;-80
2021/05/05 09:47:24;;;;;;;2.60;1.13;;;;;;;6.15;98.89;99534.11;637772;225;24806;-79
2021/05/05 09:49:53;;;;;;;2.60;1.10;;;;;;;6.63;97.54;99526.06;637706;225;24783;-79
2021/05/05 09:52:24;;;;;;;2.83;0.90;;;;;;;6.98;96.09;99512.06;647909;220;24745;-83
2021/05/05 09:54:55;;;;;;;2.00;1.20;;;;;;;7.40;94.02;99516.84;642871;220;32421;-74
2021/05/05 09:57:22;;;;;;;1.63;1.30;;;;;;;7.15;94.26;99529.42;650190;220;23647;-73
2021/05/05 09:59:55;;;;;;;3.87;1.57;;;;;;;7.00;96.12;99519.19;648413;220;24749;-74
2021/05/05 10:02:23;;;;;;;2.80;1.00;;;;;;;7.51;94.89;99515.84;648972;220;25163;-73
2021/05/05 10:04:58;;;;;;;2.80;1.17;;;;;;;8.04;93.41;99512.91;627577;225;32895;-73
2021/05/05 10:07:26;;;;;;;2.87;1.27;;;;;;;8.04;91.86;99515.98;645737;220;24738;-73
2021/05/05 10:09:54;;;;;;;3.10;1.40;;;;;;;8.23;90.83;99518.43;642025;223;24826;-74
2021/05/05 10:12:22;;;;;;;5.47;1.53;;;;;;;8.62;91.44;99513.80;647346;221;24744;-73
2021/05/05 10:14:50;;;;;;;7.30;1.40;;;;;;;8.80;90.27;99516.35;649846;220;29050;-74
2021/05/05 10:17:18;;;;;;;8.73;1.83;;;;;;;9.01;88.93;99493.98;648505;220;24751;-74
2021/05/05 10:19:48;;;;;;;4.45;1.30;;;;;;;9.41;86.29;99495.95;642329;220;32487;-75
2021/05/05 10:22:14;;;;;;;2.40;1.27;;;;;;;9.82;86.02;99508.61;650976;220;23639;-74
2021/05/05 10:24:45;;;;;;;2.77;1.53;;;;;;;9.59;83.86;99511.95;649258;220;24720;-74
2021/05/05 10:27:14;;;;;;;3.07;1.50;;;;;;;9.66;81.87;99510.34;650217;220;24732;-75
2021/05/05 10:29:41;;;;;;;2.70;1.20;;;;;;;10.31;83.08;99524.36;634575;225;24867;-74
2021/05/05 10:32:12;;;;;;;1.73;1.40;;;;;;;9.90;81.92;99514.33;638056;225;24785;-74
2021/05/05 10:34:40;;;;;;;4.27;1.30;;;;;;;9.51;81.76;99510.94;647190;221;24785;-74
2021/05/05 10:37:08;;;;;;;3.20;1.40;;;;;;;9.61;82.91;99521.70;635618;224;24792;-74
2021/05/05 10:39:40;;;;;;;1.47;1.07;;;;;;;9.73;80.20;99519.16;647056;220;24778;-74
2021/05/05 10:42:14;;;;;;;1.90;1.20;;;;;;;9.61;79.95;99510.02;648658;221;24803;-74
2021/05/05 10:44:42;;;;;;;2.47;1.22;;;;;;;9.90;79.68;99518.23;632567;225;32882;-74
2021/05/05 10:47:12;;;;;;;2.70;1.07;;;;;;;9.87;78.34;99519.03;635637;224;23698;-73
2021/05/05 10:50:08;;;;;;;0.80;0.70;;;;;;;9.90;75.22;99512.22;637622;225;24816;-74
2021/05/05 10:53:04;;;;;;;4.10;1.30;;;;;;;10.43;76.82;99524.87;634290;225;24787;-74
2021/05/05 10:55:35;;;;;;;1.30;0.83;;;;;;;9.43;75.76;99523.89;634918;225;26106;-74
2021/05/05 10:58:05;;;;;;;2.23;1.10;;;;;;;9.47;78.98;99522.61;629221;225;24874;-73
2021/05/05 11:00:49;;;;;;;4.13;1.10;;;;;;;9.20;78.49;99546.13;651057;220;24734;-74
2021/05/05 11:03:17;;;;;;;2.50;1.07;;;;;;;10.17;80.98;99550.13;638188;225;24853;-74
2021/05/05 11:05:47;;;;;;;1.63;1.10;;;;;;;10.39;76.85;99532.64;648971;220;24791;-74
2021/05/05 11:08:26;;;;;;;2.53;1.40;;;;;;;10.43;73.35;99513.66;651103;220;24732;-74
2021/05/05 11:10:55;;;;;;;2.40;1.10;;;;;;;10.64;72.60;99512.19;641794;221;24769;-74
2021/05/05 11:13:34;;;;;;;8.17;1.30;;;;;;;11.11;74.42;99519.28;635374;225;24852;-74
2021/05/05 11:16:02;;;;;;;1.73;1.03;;;;;;;11.59;71.80;99518.34;637058;223;24799;-74
2021/05/05 11:18:42;;;;;;;3.47;1.00;;;;;;;11.27;70.39;99504.95;639818;221;25018;-72
2021/05/05 11:21:09;;;;;;;4.03;1.20;;;;;;;11.74;68.90;99494.20;633138;225;24879;-74
2021/05/05 11:23:43;;;;;;;4.97;1.47;;;;;;;11.63;69.31;99494.56;635173;225;24856;-74
2021/05/05 11:26:17;;;;;;;5.50;1.40;;;;;;;11.55;67.08;99485.02;641638;221;32392;-72
2021/05/05 11:28:54;;;;;;;3.07;1.57;;;;;;;12.04;67.91;99491.29;647726;221;25759;-74
2021/05/05 11:31:20;;;;;;;2.80;1.20;;;;;;;12.24;65.94;99506.78;639130;223;24828;-71
2021/05/05 11:33:58;;;;;;;3.17;1.60;;;;;;;12.13;65.47;99456.38;647181;221;24729;-74
2021/05/05 11:36:26;;;;;;;2.47;1.30;;;;;;;11.87;66.27;99494.48;636211;225;24831;-74
2021/05/05 11:38:54;;;;;;;7.40;1.63;;;;;;;11.07;64.13;99504.98;637724;225;24894;-74
2021/05/05 11:41:22;;;;;;;4.43;1.20;;;;;;;10.16;73.47;99543.30;648153;220;24769;-73
2021/05/05 11:43:50;;;;;;;1.20;1.10;;;;;;;9.02;79.91;99607.63;649545;221;24731;-74
2021/05/05 11:46:17;;;;;;;1.77;1.00;;;;;;;8.33;82.35;99620.70;637848;225;28044;-73
2021/05/05 11:48:45;;;;;;;1.33;0.90;;;;;;;8.33;79.39;99616.82;649911;219;24872;-73